プーケット の空港の天気 - METARとTAF

プーケット国際空港 ( VTSP / HKT ) - タイ プーケット県
飛行場実況気象(Metar)
観測時間10/01 23:30 ICT (10/01 16:30 UTC)
風向・風速西北西 5m/s
視程10km以上
天気現象
少しの雲 雲底高度 610m
全天の8割程度の雲 雲底高度 3050m
気温27℃
湿度74%
気圧1009hPa
METARVTSP 011630Z 30010KT 9999 FEW020 BKN100 27/22 Q1009 NOSIG
過去の天気等 Google飛行場航空写真 Wunderground天気予報

過去48時間のMETAR

飛行場予報(TAF)
発表時間: 10/01 18:00 ICT (10/01 11:00 UTC)
予報対象時間: 1日19時 ICT ~ 3日1時 ICT
風向・風速静穏
視程10km以上
全天の4割程度の雲 雲底高度 610m
2日1時 ICT ~ 2日5時 ICT に一時的に
風向・風速西 8m/s 瞬間風速 13m/s
視程5000m
天気現象雷雨
少しの積乱雲 雲底高度 550m
全天の4割程度の雲 雲底高度 610m
全天の8割程度の雲 雲底高度 3050m
2日5時 ICT ~ 2日7時 ICT に徐々に
風向・風速西 4m/s
2日7時 ICT ~ 2日13時 ICT に一時的に
風向・風速西 8m/s 瞬間風速 13m/s
視程3000m
天気現象雷雨
少しの積乱雲 雲底高度 550m
全天の4割程度の雲 雲底高度 610m
全天の8割程度の雲 雲底高度 3050m
TAF VTSP 011100Z 0112/0218 00000KT 9999 SCT020
TEMPO 0118/0122 28015G25KT 5000 TSRA FEW018CB SCT020 BKN100
BECMG 0122/0124 28008KT
TEMPO 0200/0206 28015G25KT 3000 TSRA FEW018CB SCT020 BKN100